createdAt,value
2022-10-03T00:00:21.521Z,7.95
2022-10-03T00:01:21.606Z,7.93
2022-10-03T00:02:21.503Z,7.85
2022-10-03T00:03:21.493Z,7.83
2022-10-03T00:04:21.487Z,7.80
2022-10-03T00:05:21.482Z,7.85
2022-10-03T00:06:21.502Z,7.85
2022-10-03T00:07:21.459Z,7.76
2022-10-03T00:08:21.457Z,7.82
2022-10-03T00:09:21.449Z,7.75
2022-10-03T00:10:21.436Z,7.79
2022-10-03T00:11:21.454Z,7.79
2022-10-03T00:12:21.423Z,7.75
2022-10-03T00:13:21.419Z,7.85
2022-10-03T00:14:21.405Z,7.77
2022-10-03T00:15:21.396Z,7.80
2022-10-03T00:16:21.457Z,7.73
2022-10-03T00:17:22.381Z,7.82
2022-10-03T00:18:21.373Z,7.87
2022-10-03T00:19:21.379Z,7.63
2022-10-03T00:20:21.367Z,7.72
2022-10-03T00:21:21.378Z,7.63
2022-10-03T00:22:21.351Z,7.72
2022-10-03T00:23:21.339Z,7.61
2022-10-03T00:24:21.348Z,7.66
2022-10-03T00:25:21.347Z,7.57
2022-10-03T00:26:21.314Z,7.63
2022-10-03T00:27:21.305Z,7.57
2022-10-03T00:28:21.387Z,7.57
2022-10-03T00:29:21.297Z,7.56
2022-10-03T00:30:21.309Z,7.61
2022-10-03T00:31:21.356Z,7.58
2022-10-03T00:32:21.262Z,7.61
2022-10-03T00:33:21.259Z,7.45
2022-10-03T00:34:21.250Z,7.51
2022-10-03T00:35:21.264Z,7.35
2022-10-03T00:36:21.240Z,7.54
2022-10-03T00:37:21.226Z,7.42
2022-10-03T00:38:21.225Z,7.51
2022-10-03T00:39:21.209Z,7.43
2022-10-03T00:40:21.228Z,7.50
2022-10-03T00:41:21.195Z,7.53
2022-10-03T00:42:21.191Z,7.43
2022-10-03T00:43:21.177Z,7.51
2022-10-03T00:44:21.169Z,7.56
2022-10-03T00:45:21.195Z,7.48
2022-10-03T00:46:21.188Z,7.51
2022-10-03T00:47:21.202Z,7.50
2022-10-03T00:48:21.168Z,7.60
2022-10-03T00:49:21.138Z,7.54
2022-10-03T00:50:21.160Z,7.57
2022-10-03T00:51:21.118Z,7.58
2022-10-03T00:52:21.112Z,7.54
2022-10-03T00:53:21.107Z,7.58
2022-10-03T00:54:21.097Z,7.58
2022-10-03T00:55:21.088Z,7.67
2022-10-03T00:56:21.110Z,7.47
2022-10-03T00:57:21.079Z,7.56
2022-10-03T00:58:21.072Z,7.60
2022-10-03T00:59:21.066Z,7.66
2022-10-03T01:00:21.063Z,7.56
2022-10-03T01:01:21.165Z,7.60
2022-10-03T01:02:21.126Z,7.60
2022-10-03T01:03:21.034Z,7.51
2022-10-03T01:04:21.019Z,7.66
2022-10-03T01:05:21.011Z,7.60
2022-10-03T01:06:21.034Z,7.67
2022-10-03T01:07:20.998Z,7.63
2022-10-03T01:08:20.989Z,7.61
2022-10-03T01:09:20.986Z,7.61
2022-10-03T01:10:20.977Z,7.51
2022-10-03T01:11:20.993Z,7.45
2022-10-03T01:12:20.954Z,7.42
2022-10-03T01:13:20.947Z,7.45
2022-10-03T01:14:20.943Z,7.50
2022-10-03T01:15:20.944Z,7.32
2022-10-03T01:16:21.051Z,7.56
2022-10-03T01:17:20.924Z,7.47
2022-10-03T01:18:20.916Z,7.38
2022-10-03T01:19:20.908Z,7.33
2022-10-03T01:20:20.901Z,7.33
2022-10-03T01:21:20.926Z,7.32
2022-10-03T01:22:20.879Z,7.32
2022-10-03T01:23:20.875Z,7.36
2022-10-03T01:24:20.871Z,7.36
2022-10-03T01:25:20.871Z,7.40
2022-10-03T01:26:20.884Z,7.45
2022-10-03T01:27:20.851Z,7.36
2022-10-03T01:28:20.906Z,7.40
2022-10-03T01:29:20.834Z,7.36
2022-10-03T01:30:20.823Z,7.35
2022-10-03T01:31:20.869Z,7.39
2022-10-03T01:32:20.820Z,7.33
2022-10-03T01:33:20.810Z,7.43
2022-10-03T01:34:20.796Z,7.33
2022-10-03T01:35:20.789Z,7.31
2022-10-03T01:36:20.800Z,7.21
2022-10-03T01:37:20.786Z,7.25
2022-10-03T01:38:20.787Z,7.39
2022-10-03T01:39:20.753Z,7.29
2022-10-03T01:40:20.752Z,7.25
2022-10-03T01:41:20.766Z,7.31
2022-10-03T01:42:20.742Z,7.40
2022-10-03T01:43:20.733Z,7.33
2022-10-03T01:44:20.718Z,7.33
2022-10-03T01:45:20.708Z,7.47
2022-10-03T01:46:20.790Z,7.32
2022-10-03T01:47:20.692Z,7.42
2022-10-03T01:48:20.684Z,7.39
2022-10-03T01:49:20.677Z,7.40
2022-10-03T01:50:20.707Z,7.42
2022-10-03T01:51:20.664Z,7.35
2022-10-03T01:52:20.656Z,7.32
2022-10-03T01:53:20.645Z,7.38
2022-10-03T01:54:20.649Z,7.36
2022-10-03T01:55:20.660Z,7.31
2022-10-03T01:56:20.629Z,7.33
2022-10-03T01:57:20.617Z,7.23
2022-10-03T01:58:20.616Z,7.28
2022-10-03T01:59:20.608Z,7.33
2022-10-03T02:00:20.672Z,7.28
2022-10-03T02:01:20.678Z,7.28
2022-10-03T02:02:20.598Z,7.18
2022-10-03T02:03:20.581Z,7.23
2022-10-03T02:04:20.570Z,7.21
2022-10-03T02:05:20.589Z,7.23
2022-10-03T02:06:20.563Z,7.15
2022-10-03T02:07:20.545Z,7.13
2022-10-03T02:08:20.542Z,7.14
2022-10-03T02:09:20.568Z,7.10
2022-10-03T02:10:20.525Z,7.14
2022-10-03T02:11:20.517Z,6.99
2022-10-03T02:12:20.511Z,7.07
2022-10-03T02:13:20.500Z,6.95
2022-10-03T02:14:20.524Z,6.96
2022-10-03T02:15:20.492Z,6.97
2022-10-03T02:16:20.523Z,6.96
2022-10-03T02:17:20.474Z,7.00
2022-10-03T02:18:20.460Z,7.10
2022-10-03T02:19:20.504Z,6.99
2022-10-03T02:20:20.458Z,6.99
2022-10-03T02:21:20.443Z,7.13
2022-10-03T02:22:20.460Z,7.02
2022-10-03T02:23:20.422Z,7.02
2022-10-03T02:24:20.416Z,7.00
2022-10-03T02:25:20.433Z,7.06
2022-10-03T02:26:20.403Z,6.95
2022-10-03T02:27:20.395Z,7.03
2022-10-03T02:28:20.504Z,7.05
2022-10-03T02:29:20.377Z,7.02
2022-10-03T02:30:20.395Z,7.07
2022-10-03T02:31:20.397Z,6.92
2022-10-03T02:32:20.354Z,6.96
2022-10-03T02:33:20.344Z,7.06
2022-10-03T02:34:20.343Z,7.17
2022-10-03T02:35:20.357Z,7.07
2022-10-03T02:36:20.324Z,7.06
2022-10-03T02:37:20.319Z,7.11
2022-10-03T02:38:20.302Z,7.17
2022-10-03T02:39:20.306Z,7.24
2022-10-03T02:40:20.315Z,7.20
2022-10-03T02:41:20.284Z,7.18
2022-10-03T02:42:20.269Z,7.23
2022-10-03T02:43:20.267Z,7.14
2022-10-03T02:44:20.262Z,7.20
2022-10-03T02:45:20.336Z,7.17
2022-10-03T02:46:20.254Z,7.25
2022-10-03T02:47:20.237Z,7.28
2022-10-03T02:48:31.384Z,7.29
2022-10-03T02:49:22.221Z,7.39
2022-10-03T02:50:20.245Z,7.36
2022-10-03T02:51:20.208Z,7.43
2022-10-03T02:52:20.204Z,7.42
2022-10-03T02:53:20.207Z,7.56
2022-10-03T02:54:20.206Z,7.43
2022-10-03T02:55:20.210Z,7.39
2022-10-03T02:56:20.179Z,7.57
2022-10-03T02:57:20.160Z,7.48
2022-10-03T02:58:20.171Z,7.45
2022-10-03T02:59:20.149Z,7.48
2022-10-03T03:00:20.170Z,7.40
2022-10-03T03:01:20.196Z,7.50
2022-10-03T03:02:20.201Z,7.48
2022-10-03T03:03:20.126Z,7.40
2022-10-03T03:04:20.119Z,7.43
2022-10-03T03:05:20.144Z,7.48
2022-10-03T03:06:20.103Z,7.42
2022-10-03T03:07:20.108Z,7.45
2022-10-03T03:08:20.085Z,7.35
2022-10-03T03:09:20.081Z,7.36
2022-10-03T03:10:20.107Z,7.35
2022-10-03T03:11:20.069Z,7.29
2022-10-03T03:12:20.058Z,7.24
2022-10-03T03:13:20.048Z,7.18
2022-10-03T03:14:20.042Z,7.18
2022-10-03T03:15:20.037Z,7.15
2022-10-03T03:16:20.087Z,7.24
2022-10-03T03:17:21.017Z,7.13
2022-10-03T03:18:20.011Z,7.23
2022-10-03T03:19:20.005Z,7.11
2022-10-03T03:20:19.998Z,7.14
2022-10-03T03:21:20.020Z,7.17
2022-10-03T03:22:19.981Z,7.14
2022-10-03T03:23:19.977Z,7.18
2022-10-03T03:24:19.982Z,7.10
2022-10-03T03:25:19.950Z,7.02
2022-10-03T03:26:20.973Z,7.05
2022-10-03T03:27:19.950Z,7.13
2022-10-03T03:28:19.966Z,7.07
2022-10-03T03:29:19.928Z,7.10
2022-10-03T03:30:19.918Z,7.15
2022-10-03T03:31:19.976Z,7.06
2022-10-03T03:32:19.907Z,7.13
2022-10-03T03:33:19.910Z,7.07
2022-10-03T03:34:19.894Z,7.05
2022-10-03T03:35:19.885Z,7.15
2022-10-03T03:36:19.898Z,7.06
2022-10-03T03:37:19.880Z,7.00
2022-10-03T03:38:19.864Z,7.11
2022-10-03T03:39:19.853Z,7.05
2022-10-03T03:40:19.848Z,7.00
2022-10-03T03:41:19.879Z,7.10
2022-10-03T03:42:19.830Z,6.97
2022-10-03T03:43:19.834Z,7.06
2022-10-03T03:44:19.822Z,7.03
2022-10-03T03:45:19.944Z,7.02
2022-10-03T03:46:19.834Z,6.97
2022-10-03T03:47:19.799Z,6.95
2022-10-03T03:48:19.788Z,7.03
2022-10-03T03:49:19.797Z,6.97
2022-10-03T03:50:19.775Z,7.00
2022-10-03T03:51:19.799Z,6.95
2022-10-03T03:52:19.761Z,6.88
2022-10-03T03:53:19.753Z,7.02
2022-10-03T03:54:19.747Z,7.02
2022-10-03T03:55:19.739Z,7.05
2022-10-03T03:56:19.758Z,7.10
2022-10-03T03:57:52.438Z,7.05
2022-10-03T03:58:19.709Z,7.18
2022-10-03T03:59:19.701Z,7.15
2022-10-03T04:00:19.701Z,7.17
2022-10-03T04:01:19.796Z,7.31
2022-10-03T04:02:19.727Z,7.15
2022-10-03T04:03:19.684Z,7.17
2022-10-03T04:04:19.670Z,7.20
2022-10-03T04:05:19.658Z,7.21
2022-10-03T04:06:19.677Z,7.17
2022-10-03T04:07:21.817Z,7.23
2022-10-03T04:08:20.635Z,7.24
2022-10-03T04:09:19.624Z,7.25
2022-10-03T04:10:20.616Z,7.32
2022-10-03T04:11:19.645Z,7.29
2022-10-03T04:12:19.611Z,7.25
2022-10-03T04:13:19.600Z,7.18
2022-10-03T04:14:19.594Z,7.14
2022-10-03T04:15:19.589Z,7.20
2022-10-03T04:16:19.629Z,7.17
2022-10-03T04:17:19.576Z,7.28
2022-10-03T04:18:19.578Z,7.15
2022-10-03T04:19:19.563Z,7.24
2022-10-03T04:20:19.547Z,7.25
2022-10-03T04:21:19.571Z,7.24
2022-10-03T04:22:19.545Z,7.20
2022-10-03T04:23:19.533Z,7.32
2022-10-03T04:24:19.527Z,7.35
2022-10-03T04:25:19.519Z,7.35
2022-10-03T04:26:19.537Z,7.32
2022-10-03T04:27:19.500Z,7.29
2022-10-03T04:28:19.640Z,7.32
2022-10-03T04:29:19.492Z,7.38
2022-10-03T04:30:19.483Z,7.35
2022-10-03T04:31:19.559Z,7.32
2022-10-03T04:32:19.466Z,7.38
2022-10-03T04:33:19.459Z,7.45
2022-10-03T04:34:19.447Z,7.43
2022-10-03T04:35:19.441Z,7.32
2022-10-03T04:36:19.469Z,7.32
2022-10-03T04:37:19.422Z,7.35
2022-10-03T04:38:19.417Z,7.39
2022-10-03T04:39:19.417Z,7.38
2022-10-03T04:40:19.408Z,7.40
2022-10-03T04:41:19.446Z,7.36
2022-10-03T04:42:19.388Z,7.39
2022-10-03T04:43:19.387Z,7.38
2022-10-03T04:44:19.377Z,7.33
2022-10-03T04:45:19.373Z,7.51
2022-10-03T04:46:19.410Z,7.47
2022-10-03T04:47:19.381Z,7.48
2022-10-03T04:48:19.349Z,7.57
2022-10-03T04:49:19.349Z,7.48
2022-10-03T04:50:19.326Z,7.51
2022-10-03T04:51:19.337Z,7.57
2022-10-03T04:52:19.341Z,7.61
2022-10-03T04:53:19.341Z,7.56
2022-10-03T04:54:19.302Z,7.63
2022-10-03T04:55:19.302Z,7.53
2022-10-03T04:56:19.290Z,7.58
2022-10-03T04:57:19.287Z,7.57
2022-10-03T04:58:19.299Z,7.61
2022-10-03T04:59:19.267Z,7.72
2022-10-03T05:00:19.259Z,7.61
2022-10-03T05:01:19.267Z,7.67
2022-10-03T05:02:19.285Z,7.73
2022-10-03T05:03:19.271Z,7.63
2022-10-03T05:04:19.223Z,7.66
2022-10-03T05:05:19.233Z,7.63
2022-10-03T05:06:19.210Z,7.61
2022-10-03T05:07:19.212Z,7.61
2022-10-03T05:08:19.223Z,7.67
2022-10-03T05:09:19.196Z,7.73
2022-10-03T05:10:19.186Z,7.72
2022-10-03T05:11:19.180Z,7.69
2022-10-03T05:12:19.168Z,7.72
2022-10-03T05:13:19.194Z,7.76
2022-10-03T05:14:19.151Z,7.70
2022-10-03T05:15:19.148Z,7.72
2022-10-03T05:16:19.199Z,7.70
2022-10-03T05:17:19.130Z,7.72
2022-10-03T05:18:22.277Z,7.57
2022-10-03T05:19:20.114Z,7.76
2022-10-03T05:20:19.237Z,7.73
2022-10-03T05:21:19.116Z,7.80
2022-10-03T05:22:19.116Z,7.82
2022-10-03T05:23:19.184Z,7.77
2022-10-03T05:24:19.096Z,7.83
2022-10-03T05:25:19.125Z,7.82
2022-10-03T05:26:43.465Z,7.80
2022-10-03T05:27:21.081Z,7.85
2022-10-03T05:28:19.201Z,7.88
2022-10-03T05:29:19.125Z,7.82
2022-10-03T05:30:19.059Z,7.87
2022-10-03T05:31:19.093Z,7.83
2022-10-03T05:32:19.047Z,7.90
2022-10-03T05:33:19.061Z,7.88
2022-10-03T05:34:19.025Z,7.95
2022-10-03T05:35:19.031Z,7.93
2022-10-03T05:36:19.020Z,7.88
2022-10-03T05:37:19.003Z,7.97
2022-10-03T05:38:19.046Z,8.03
2022-10-03T05:39:19.054Z,7.93
2022-10-03T05:40:19.002Z,7.98
2022-10-03T05:41:22.678Z,8.10
2022-10-03T05:42:23.853Z,8.03
2022-10-03T05:43:20.251Z,8.10
2022-10-03T05:44:18.952Z,8.05
2022-10-03T05:45:18.914Z,8.06
2022-10-03T05:46:18.956Z,8.10
2022-10-03T05:47:18.926Z,8.08
2022-10-03T05:48:19.142Z,8.09
2022-10-03T05:49:18.898Z,8.06
2022-10-03T05:50:18.896Z,7.95
2022-10-03T05:51:18.889Z,7.95
2022-10-03T05:52:18.882Z,7.97
2022-10-03T05:53:18.988Z,8.03
2022-10-03T05:54:18.865Z,8.01
2022-10-03T05:55:19.857Z,7.98
2022-10-03T05:56:18.837Z,7.93
2022-10-03T05:57:18.844Z,7.97
2022-10-03T05:58:18.856Z,7.97
2022-10-03T05:59:18.854Z,7.88
2022-10-03T06:00:18.815Z,7.93
2022-10-03T06:01:18.830Z,7.91
2022-10-03T06:02:18.912Z,8.01
2022-10-03T06:03:18.850Z,7.95
2022-10-03T06:04:18.781Z,7.93
2022-10-03T06:05:18.769Z,8.03
2022-10-03T06:06:18.780Z,8.06
2022-10-03T06:07:18.784Z,8.00
2022-10-03T06:08:19.590Z,8.08
2022-10-03T06:09:18.725Z,8.01
2022-10-03T06:10:18.724Z,8.13
2022-10-03T06:11:18.824Z,8.10
2022-10-03T06:12:18.729Z,8.10
2022-10-03T06:13:18.703Z,8.08
2022-10-03T06:14:18.693Z,8.15
2022-10-03T06:15:18.700Z,8.23
2022-10-03T06:16:19.661Z,8.20
2022-10-03T06:17:18.668Z,8.28
2022-10-03T06:18:18.837Z,8.20
2022-10-03T06:19:18.682Z,8.28
2022-10-03T06:20:18.647Z,8.31
2022-10-03T06:21:18.632Z,8.30
2022-10-03T06:22:18.633Z,8.37
2022-10-03T06:23:18.653Z,8.28
2022-10-03T06:24:18.612Z,8.37
2022-10-03T06:25:18.613Z,8.41
2022-10-03T06:26:18.601Z,8.45
2022-10-03T06:27:18.695Z,8.41
2022-10-03T06:28:18.627Z,8.48
2022-10-03T06:29:18.586Z,8.52
2022-10-03T06:30:18.602Z,8.41
2022-10-03T06:31:18.617Z,8.45
2022-10-03T06:32:18.589Z,8.45
2022-10-03T06:33:18.559Z,8.49
2022-10-03T06:34:18.614Z,8.48
2022-10-03T06:35:18.533Z,8.48
2022-10-03T06:36:18.568Z,8.48
2022-10-03T06:37:18.590Z,8.58
2022-10-03T06:38:18.518Z,8.53
2022-10-03T06:39:18.502Z,8.53
2022-10-03T06:40:18.498Z,8.61
2022-10-03T06:41:18.492Z,8.51
2022-10-03T06:42:18.522Z,8.64
2022-10-03T06:43:18.522Z,8.64
2022-10-03T06:44:18.469Z,8.66
2022-10-03T06:45:18.456Z,8.67
2022-10-03T06:46:18.493Z,8.69
2022-10-03T06:47:18.438Z,8.71
2022-10-03T06:48:18.477Z,8.71
2022-10-03T06:49:18.469Z,8.81
2022-10-03T06:50:18.425Z,8.81
2022-10-03T06:51:18.634Z,8.89
2022-10-03T06:52:18.404Z,8.87
2022-10-03T06:53:18.421Z,8.89
2022-10-03T06:54:18.387Z,9.03
2022-10-03T06:55:18.374Z,8.97
2022-10-03T06:56:18.372Z,8.94
2022-10-03T06:57:18.367Z,8.95
2022-10-03T06:58:18.920Z,8.99
2022-10-03T06:59:18.347Z,9.00
2022-10-03T07:00:18.990Z,9.06
2022-10-03T07:01:18.419Z,9.13
2022-10-03T07:02:18.455Z,9.03
2022-10-03T07:03:18.321Z,9.08
2022-10-03T07:04:18.309Z,9.00
2022-10-03T07:05:18.426Z,9.13
2022-10-03T07:06:18.307Z,9.13
2022-10-03T07:07:18.642Z,9.14
2022-10-03T07:08:18.282Z,9.16
2022-10-03T07:09:18.386Z,9.21
2022-10-03T07:10:18.267Z,9.29
2022-10-03T07:11:18.263Z,9.23
2022-10-03T07:12:18.311Z,9.29
2022-10-03T07:13:18.246Z,9.31
2022-10-03T07:14:18.249Z,9.25
2022-10-03T07:15:18.225Z,9.36
2022-10-03T07:16:26.983Z,9.37
2022-10-03T07:17:20.343Z,9.40
2022-10-03T07:18:18.234Z,9.47
2022-10-03T07:19:18.200Z,9.44
2022-10-03T07:20:18.196Z,9.44
2022-10-03T07:21:18.192Z,9.36
2022-10-03T07:22:18.226Z,9.47
2022-10-03T07:23:18.203Z,9.50
2022-10-03T07:24:19.163Z,9.58
2022-10-03T07:25:18.189Z,9.46
2022-10-03T07:26:18.156Z,9.58
2022-10-03T07:27:18.179Z,9.68
2022-10-03T07:28:18.324Z,9.69
2022-10-03T07:29:18.363Z,9.74
2022-10-03T07:30:18.121Z,9.77
2022-10-03T07:31:18.160Z,9.83
2022-10-03T07:32:18.171Z,9.95
2022-10-03T07:33:18.098Z,9.87
2022-10-03T07:34:18.226Z,9.98
2022-10-03T07:35:18.082Z,10.05
2022-10-03T07:36:18.072Z,10.07
2022-10-03T07:37:18.161Z,10.13
2022-10-03T07:38:18.072Z,10.17
2022-10-03T07:39:18.057Z,10.23
2022-10-03T07:40:18.046Z,10.34
2022-10-03T07:41:18.085Z,10.42
2022-10-03T07:42:18.052Z,10.37
2022-10-03T07:43:18.021Z,10.48
2022-10-03T07:44:18.024Z,10.53
2022-10-03T07:45:17.998Z,10.53
2022-10-03T07:46:18.090Z,10.53
2022-10-03T07:47:18.025Z,10.56
2022-10-03T07:48:17.982Z,10.61
2022-10-03T07:49:18.688Z,10.56
2022-10-03T07:50:18.968Z,10.60
2022-10-03T07:51:17.982Z,10.56
2022-10-03T07:52:17.992Z,10.67
2022-10-03T07:53:17.960Z,10.69
2022-10-03T07:54:18.120Z,10.68
2022-10-03T07:55:17.927Z,10.81
2022-10-03T07:56:17.925Z,11.00
2022-10-03T07:57:17.915Z,10.89
2022-10-03T07:58:17.932Z,11.00
2022-10-03T07:59:17.904Z,10.97
2022-10-03T08:00:17.914Z,11.00
2022-10-03T08:01:17.884Z,11.08
2022-10-03T08:02:17.910Z,11.18
2022-10-03T08:03:17.987Z,11.15
2022-10-03T08:04:17.901Z,11.19
2022-10-03T08:05:17.856Z,11.30
2022-10-03T08:06:17.854Z,11.08
2022-10-03T08:07:17.844Z,11.19
2022-10-03T08:08:17.873Z,11.11
2022-10-03T08:09:17.819Z,11.19
2022-10-03T08:10:17.816Z,11.30
2022-10-03T08:11:17.811Z,11.36
2022-10-03T08:12:17.804Z,11.32
2022-10-03T08:13:17.833Z,11.32
2022-10-03T08:14:17.789Z,11.35
2022-10-03T08:15:17.777Z,11.36
2022-10-03T08:16:17.828Z,11.40
2022-10-03T08:17:17.822Z,11.40
2022-10-03T08:18:17.777Z,11.37
2022-10-03T08:19:17.752Z,11.32
2022-10-03T08:20:17.768Z,11.41
2022-10-03T08:21:17.737Z,11.29
2022-10-03T08:22:17.723Z,11.37
2022-10-03T08:23:17.749Z,11.50
2022-10-03T08:24:17.708Z,11.37
2022-10-03T08:25:17.697Z,11.41
2022-10-03T08:26:17.680Z,11.48
2022-10-03T08:27:18.689Z,11.50
2022-10-03T08:28:17.743Z,11.44
2022-10-03T08:29:18.665Z,11.35
2022-10-03T08:30:17.666Z,11.36
2022-10-03T08:31:17.678Z,11.41
2022-10-03T08:32:17.645Z,11.37
2022-10-03T08:33:17.675Z,11.43
2022-10-03T08:34:17.631Z,11.54
2022-10-03T08:35:17.653Z,11.75
2022-10-03T08:36:17.617Z,11.73
2022-10-03T08:37:17.619Z,11.78
2022-10-03T08:38:17.658Z,11.97
2022-10-03T08:39:17.600Z,12.06
2022-10-03T08:40:17.587Z,11.99
2022-10-03T08:41:17.595Z,12.03
2022-10-03T08:42:17.645Z,11.99
2022-10-03T08:43:17.677Z,12.06
2022-10-03T08:44:17.574Z,12.00
2022-10-03T08:45:17.552Z,11.99
2022-10-03T08:46:17.715Z,11.94
2022-10-03T08:47:18.407Z,11.87
2022-10-03T08:48:17.575Z,11.97
2022-10-03T08:49:17.563Z,11.91
2022-10-03T08:50:17.523Z,12.03
2022-10-03T08:51:17.538Z,12.15
2022-10-03T08:52:17.555Z,12.02
2022-10-03T08:53:17.672Z,12.17
2022-10-03T08:54:17.501Z,12.06
2022-10-03T08:55:17.496Z,12.07
2022-10-03T08:56:17.506Z,12.18
2022-10-03T08:57:17.469Z,12.07
2022-10-03T08:58:17.492Z,12.21
2022-10-03T08:59:17.446Z,12.28
2022-10-03T09:00:17.503Z,12.28
2022-10-03T09:01:17.518Z,12.22
2022-10-03T09:02:17.582Z,12.27
2022-10-03T09:03:36.791Z,12.18
2022-10-03T09:04:19.430Z,12.12
2022-10-03T09:05:17.424Z,12.10
2022-10-03T09:06:17.416Z,12.10
2022-10-03T09:07:18.698Z,12.10
2022-10-03T09:08:18.537Z,12.12
2022-10-03T09:09:17.573Z,12.25
2022-10-03T09:10:17.416Z,12.20
2022-10-03T09:11:17.457Z,12.27
2022-10-03T09:12:17.371Z,12.28
2022-10-03T09:13:17.446Z,12.32
2022-10-03T09:14:17.371Z,12.50
2022-10-03T09:15:17.389Z,12.61
2022-10-03T09:16:18.651Z,12.80
2022-10-03T09:17:18.337Z,12.83
2022-10-03T09:18:17.357Z,12.93
2022-10-03T09:19:17.391Z,12.85
2022-10-03T09:20:17.460Z,12.85
2022-10-03T09:21:17.319Z,12.95
2022-10-03T09:22:17.319Z,12.80
2022-10-03T09:23:17.329Z,12.79
2022-10-03T09:24:17.360Z,12.83
2022-10-03T09:25:17.273Z,12.73
2022-10-03T09:26:17.300Z,12.83
2022-10-03T09:27:17.272Z,12.91
2022-10-03T09:28:19.179Z,12.87
2022-10-03T09:29:17.254Z,13.04
2022-10-03T09:30:17.394Z,12.85
2022-10-03T09:31:17.298Z,12.94
2022-10-03T09:32:17.332Z,12.98
2022-10-03T09:33:17.266Z,12.95
2022-10-03T09:34:17.210Z,13.18
2022-10-03T09:35:17.202Z,13.22
2022-10-03T09:36:17.235Z,13.20
2022-10-03T09:37:17.294Z,13.28
2022-10-03T09:38:17.209Z,13.23
2022-10-03T09:39:17.361Z,13.12
2022-10-03T09:40:17.416Z,13.20
2022-10-03T09:41:18.156Z,13.08
2022-10-03T09:42:17.265Z,13.04
2022-10-03T09:43:17.212Z,12.93
2022-10-03T09:44:17.118Z,12.94
2022-10-03T09:45:17.162Z,12.90
2022-10-03T09:46:17.174Z,12.78
2022-10-03T09:47:17.087Z,12.80
2022-10-03T09:48:17.130Z,12.83
2022-10-03T09:49:17.067Z,13.04
2022-10-03T09:50:17.238Z,12.93
2022-10-03T09:51:17.060Z,12.97
2022-10-03T09:52:17.050Z,12.95
2022-10-03T09:53:17.078Z,13.04
2022-10-03T09:54:17.035Z,13.12
2022-10-03T09:55:17.037Z,13.20
2022-10-03T09:56:17.075Z,13.25
2022-10-03T09:57:29.553Z,13.42
2022-10-03T09:58:16.993Z,13.46
2022-10-03T09:59:17.017Z,13.50
2022-10-03T10:00:17.067Z,13.50
2022-10-03T10:01:17.031Z,13.50
2022-10-03T10:02:16.965Z,13.75
2022-10-03T10:03:16.962Z,13.60
2022-10-03T10:04:22.097Z,13.78
2022-10-03T10:05:17.935Z,13.79
2022-10-03T10:06:17.377Z,13.92
2022-10-03T10:07:16.919Z,13.95
2022-10-03T10:08:16.921Z,13.99
2022-10-03T10:09:16.939Z,13.97
2022-10-03T10:10:16.986Z,13.95
2022-10-03T10:11:16.895Z,13.93
2022-10-03T10:12:16.895Z,13.92
2022-10-03T10:13:16.879Z,13.89
2022-10-03T10:14:16.952Z,14.03
2022-10-03T10:15:16.886Z,13.95
2022-10-03T10:16:16.884Z,13.90
2022-10-03T10:17:16.862Z,14.08
2022-10-03T10:18:16.849Z,14.05
2022-10-03T10:19:16.869Z,14.14
2022-10-03T10:20:16.834Z,14.17
2022-10-03T10:21:16.824Z,14.28
2022-10-03T10:22:16.817Z,14.36
2022-10-03T10:23:16.813Z,14.45
2022-10-03T10:24:16.832Z,14.50
2022-10-03T10:25:16.806Z,14.60
2022-10-03T10:26:16.792Z,14.50
2022-10-03T10:27:16.791Z,14.63
2022-10-03T10:28:16.837Z,14.68
2022-10-03T10:29:16.793Z,14.68
2022-10-03T10:30:16.756Z,14.66
2022-10-03T10:31:16.814Z,14.54
2022-10-03T10:32:21.386Z,14.33
2022-10-03T10:33:18.739Z,14.14
2022-10-03T10:34:16.756Z,14.29
2022-10-03T10:35:16.721Z,14.25
2022-10-03T10:36:16.714Z,14.29
2022-10-03T10:37:16.704Z,14.20
2022-10-03T10:38:16.694Z,14.23
2022-10-03T10:39:17.051Z,14.17
2022-10-03T10:40:16.688Z,14.11
2022-10-03T10:41:16.674Z,13.96
2022-10-03T10:42:16.671Z,14.00
2022-10-03T10:43:16.652Z,14.15
2022-10-03T10:44:16.681Z,14.15
2022-10-03T10:45:16.649Z,14.11
2022-10-03T10:46:16.692Z,14.03
2022-10-03T10:47:16.623Z,13.96
2022-10-03T10:48:16.625Z,13.99
2022-10-03T10:49:16.610Z,14.03
2022-10-03T10:50:16.640Z,13.99
2022-10-03T10:51:16.595Z,14.12
2022-10-03T10:52:16.590Z,14.29
2022-10-03T10:53:16.601Z,14.25
2022-10-03T10:54:16.600Z,14.35
2022-10-03T10:55:16.572Z,14.33
2022-10-03T10:56:16.553Z,14.33
2022-10-03T10:57:16.552Z,14.47
2022-10-03T10:58:16.541Z,14.59
2022-10-03T10:59:16.558Z,14.60
2022-10-03T11:00:16.542Z,14.79
2022-10-03T11:01:16.561Z,14.92
2022-10-03T11:02:16.513Z,15.07
2022-10-03T11:03:16.501Z,15.19
2022-10-03T11:04:16.563Z,15.24
2022-10-03T11:05:16.492Z,15.29
2022-10-03T11:06:16.481Z,15.00
2022-10-03T11:07:16.476Z,15.00
2022-10-03T11:08:16.463Z,15.15
2022-10-03T11:09:16.492Z,15.22
2022-10-03T11:10:16.452Z,15.35
2022-10-03T11:11:16.453Z,15.25
2022-10-03T11:12:16.437Z,15.25
2022-10-03T11:13:16.432Z,15.29
2022-10-03T11:14:16.419Z,15.37
2022-10-03T11:15:16.442Z,15.35
2022-10-03T11:16:16.482Z,15.36
2022-10-03T11:17:16.396Z,15.18
2022-10-03T11:18:16.422Z,15.15
2022-10-03T11:19:16.383Z,14.84
2022-10-03T11:20:16.408Z,14.88
2022-10-03T11:21:16.369Z,14.84
2022-10-03T11:22:16.359Z,14.82
2022-10-03T11:23:16.353Z,14.84
2022-10-03T11:24:16.349Z,14.79
2022-10-03T11:25:16.361Z,14.96
2022-10-03T11:26:16.324Z,15.03
2022-10-03T11:27:16.321Z,15.14
2022-10-03T11:28:18.881Z,15.29
2022-10-03T11:29:17.307Z,15.24
2022-10-03T11:30:16.334Z,15.37
2022-10-03T11:31:16.318Z,15.31
2022-10-03T11:32:16.279Z,15.47
2022-10-03T11:33:16.270Z,15.31
2022-10-03T11:34:16.258Z,15.49
2022-10-03T11:35:16.297Z,15.51
2022-10-03T11:36:16.246Z,15.55
2022-10-03T11:37:16.242Z,15.42
2022-10-03T11:38:16.285Z,15.52
2022-10-03T11:39:16.225Z,15.49
2022-10-03T11:40:16.246Z,15.44
2022-10-03T11:41:16.237Z,15.55
2022-10-03T11:42:16.200Z,15.77
2022-10-03T11:43:16.207Z,15.79
2022-10-03T11:44:16.215Z,15.64
2022-10-03T11:45:16.174Z,15.72
2022-10-03T11:46:16.249Z,15.79
2022-10-03T11:47:16.158Z,15.92
2022-10-03T11:48:16.148Z,15.79
2022-10-03T11:49:16.164Z,15.73
2022-10-03T11:50:16.137Z,15.68
2022-10-03T11:51:16.122Z,15.61
2022-10-03T11:52:16.116Z,15.59
2022-10-03T11:53:16.117Z,15.64
2022-10-03T11:54:30.415Z,15.68
2022-10-03T11:55:18.097Z,15.75
2022-10-03T11:56:16.083Z,15.83
2022-10-03T11:57:16.084Z,15.80
2022-10-03T11:58:16.070Z,15.79
2022-10-03T11:59:16.063Z,15.84
2022-10-03T12:00:16.083Z,15.98
2022-10-03T12:01:16.049Z,15.97
2022-10-03T12:02:16.103Z,15.97
2022-10-03T12:03:16.116Z,16.00
2022-10-03T12:04:16.099Z,15.83
2022-10-03T12:05:16.042Z,15.91
2022-10-03T12:06:16.015Z,15.84
2022-10-03T12:07:17.622Z,15.84
2022-10-03T12:08:17.018Z,15.59
2022-10-03T12:09:15.989Z,15.68
2022-10-03T12:10:16.011Z,15.70
2022-10-03T12:11:15.972Z,15.65
2022-10-03T12:12:15.969Z,15.62
2022-10-03T12:13:15.955Z,15.68
2022-10-03T12:14:15.953Z,15.65
2022-10-03T12:15:15.967Z,15.64
2022-10-03T12:16:16.015Z,15.54
2022-10-03T12:17:15.964Z,15.39
2022-10-03T12:18:15.925Z,15.40
2022-10-03T12:19:15.916Z,15.31
2022-10-03T12:20:15.931Z,15.55
2022-10-03T12:21:19.741Z,15.67
2022-10-03T12:22:17.904Z,15.62
2022-10-03T12:23:15.883Z,15.72
2022-10-03T12:24:15.873Z,15.80
2022-10-03T12:25:15.888Z,15.68
2022-10-03T12:26:15.863Z,15.70
2022-10-03T12:27:15.855Z,15.76
2022-10-03T12:28:15.919Z,15.88
2022-10-03T12:29:15.847Z,15.95
2022-10-03T12:30:15.856Z,15.92
2022-10-03T12:31:18.957Z,16.01
2022-10-03T12:32:16.883Z,16.15
2022-10-03T12:33:15.802Z,16.15
2022-10-03T12:34:15.805Z,16.43
2022-10-03T12:35:15.821Z,16.33
2022-10-03T12:36:15.784Z,16.39
2022-10-03T12:37:15.775Z,16.43
2022-10-03T12:38:15.768Z,16.53
2022-10-03T12:39:15.879Z,16.51
2022-10-03T12:40:15.785Z,16.31
2022-10-03T12:41:15.751Z,16.31
2022-10-03T12:42:15.734Z,16.29
2022-10-03T12:43:15.737Z,16.36
2022-10-03T12:44:15.719Z,16.21
2022-10-03T12:45:15.743Z,16.04
2022-10-03T12:46:15.785Z,15.92
2022-10-03T12:47:15.696Z,15.86
2022-10-03T12:48:15.689Z,15.83
2022-10-03T12:49:15.706Z,15.83
2022-10-03T12:50:15.705Z,16.02
2022-10-03T12:51:15.659Z,15.79
2022-10-03T12:52:15.656Z,16.02
2022-10-03T12:53:15.652Z,15.91
2022-10-03T12:54:15.643Z,15.90
2022-10-03T12:55:15.665Z,15.92
2022-10-03T12:56:15.627Z,15.83
2022-10-03T12:57:15.626Z,15.86
2022-10-03T12:58:15.609Z,15.86
2022-10-03T12:59:15.609Z,15.86
2022-10-03T13:00:15.643Z,15.84
2022-10-03T13:01:15.649Z,15.79
2022-10-03T13:02:15.648Z,15.77
2022-10-03T13:03:15.593Z,15.77
2022-10-03T13:04:15.566Z,15.72
2022-10-03T13:05:15.594Z,15.65
2022-10-03T13:06:15.550Z,15.73
2022-10-03T13:07:15.557Z,15.80